sensor_id;sensor_type;location;lat;lon;timestamp;P1;durP1;ratioP1;P2;durP2;ratioP2
10904;SDS011;5505;51.450;9.254;2023-02-14T00:00:09;9.57;;;7.60;;
10904;SDS011;5505;51.450;9.254;2023-02-14T00:02:56;10.70;;;7.73;;
10904;SDS011;5505;51.450;9.254;2023-02-14T00:05:43;10.53;;;7.93;;
10904;SDS011;5505;51.450;9.254;2023-02-14T00:08:31;9.70;;;7.50;;
10904;SDS011;5505;51.450;9.254;2023-02-14T00:11:18;11.33;;;8.57;;
10904;SDS011;5505;51.450;9.254;2023-02-14T00:14:05;12.93;;;9.13;;
10904;SDS011;5505;51.450;9.254;2023-02-14T00:17:10;11.77;;;8.73;;
10904;SDS011;5505;51.450;9.254;2023-02-14T00:19:57;12.73;;;8.83;;
10904;SDS011;5505;51.450;9.254;2023-02-14T00:22:43;12.37;;;9.23;;
10904;SDS011;5505;51.450;9.254;2023-02-14T00:25:33;10.70;;;8.30;;
10904;SDS011;5505;51.450;9.254;2023-02-14T00:28:20;11.70;;;8.27;;
10904;SDS011;5505;51.450;9.254;2023-02-14T00:31:07;35.97;;;17.90;;
10904;SDS011;5505;51.450;9.254;2023-02-14T00:33:53;30.37;;;16.83;;
10904;SDS011;5505;51.450;9.254;2023-02-14T00:36:40;21.10;;;13.30;;
10904;SDS011;5505;51.450;9.254;2023-02-14T00:39:27;15.17;;;10.60;;
10904;SDS011;5505;51.450;9.254;2023-02-14T00:42:16;11.00;;;7.73;;
10904;SDS011;5505;51.450;9.254;2023-02-14T00:45:02;9.33;;;7.70;;
10904;SDS011;5505;51.450;9.254;2023-02-14T00:47:50;8.47;;;6.87;;
10904;SDS011;5505;51.450;9.254;2023-02-14T00:50:36;8.20;;;6.90;;
10904;SDS011;5505;51.450;9.254;2023-02-14T00:53:23;9.77;;;7.83;;
10904;SDS011;5505;51.450;9.254;2023-02-14T00:56:10;8.47;;;7.57;;
10904;SDS011;5505;51.450;9.254;2023-02-14T00:58:59;9.67;;;7.23;;
10904;SDS011;5505;51.450;9.254;2023-02-14T01:01:45;9.83;;;6.87;;
10904;SDS011;5505;51.450;9.254;2023-02-14T01:04:32;10.13;;;8.00;;
10904;SDS011;5505;51.450;9.254;2023-02-14T01:07:19;10.53;;;7.47;;
10904;SDS011;5505;51.450;9.254;2023-02-14T01:10:07;9.47;;;7.63;;
10904;SDS011;5505;51.450;9.254;2023-02-14T01:12:54;8.43;;;6.80;;
10904;SDS011;5505;51.450;9.254;2023-02-14T01:15:43;9.20;;;7.10;;
10904;SDS011;5505;51.450;9.254;2023-02-14T01:18:31;11.50;;;7.53;;
10904;SDS011;5505;51.450;9.254;2023-02-14T01:21:19;7.83;;;6.70;;
10904;SDS011;5505;51.450;9.254;2023-02-14T01:24:08;8.27;;;6.53;;
10904;SDS011;5505;51.450;9.254;2023-02-14T01:26:55;8.43;;;6.77;;
10904;SDS011;5505;51.450;9.254;2023-02-14T01:29:42;8.77;;;7.23;;
10904;SDS011;5505;51.450;9.254;2023-02-14T01:32:30;8.23;;;6.97;;
10904;SDS011;5505;51.450;9.254;2023-02-14T01:35:17;10.63;;;7.83;;
10904;SDS011;5505;51.450;9.254;2023-02-14T01:38:04;7.97;;;7.17;;
10904;SDS011;5505;51.450;9.254;2023-02-14T01:40:51;9.23;;;7.57;;
10904;SDS011;5505;51.450;9.254;2023-02-14T01:43:48;9.53;;;7.50;;
10904;SDS011;5505;51.450;9.254;2023-02-14T01:46:40;9.40;;;8.40;;
10904;SDS011;5505;51.450;9.254;2023-02-14T01:49:31;11.13;;;8.03;;
10904;SDS011;5505;51.450;9.254;2023-02-14T01:52:23;11.67;;;8.00;;
10904;SDS011;5505;51.450;9.254;2023-02-14T01:55:14;10.13;;;7.73;;
10904;SDS011;5505;51.450;9.254;2023-02-14T01:58:05;12.00;;;8.73;;
10904;SDS011;5505;51.450;9.254;2023-02-14T02:00:55;13.07;;;9.10;;
10904;SDS011;5505;51.450;9.254;2023-02-14T02:03:43;19.90;;;12.17;;
10904;SDS011;5505;51.450;9.254;2023-02-14T02:06:36;13.40;;;9.17;;
10904;SDS011;5505;51.450;9.254;2023-02-14T02:09:27;12.17;;;8.60;;
10904;SDS011;5505;51.450;9.254;2023-02-14T02:12:18;11.50;;;9.17;;
10904;SDS011;5505;51.450;9.254;2023-02-14T02:15:05;11.63;;;9.27;;
10904;SDS011;5505;51.450;9.254;2023-02-14T02:17:55;13.00;;;9.07;;
10904;SDS011;5505;51.450;9.254;2023-02-14T02:24:16;10.03;;;7.90;;
10904;SDS011;5505;51.450;9.254;2023-02-14T02:27:18;11.13;;;8.93;;
10904;SDS011;5505;51.450;9.254;2023-02-14T02:30:33;11.43;;;8.33;;
10904;SDS011;5505;51.450;9.254;2023-02-14T02:33:42;11.83;;;9.03;;
10904;SDS011;5505;51.450;9.254;2023-02-14T02:36:56;16.37;;;9.13;;
10904;SDS011;5505;51.450;9.254;2023-02-14T02:40:05;12.03;;;8.67;;
10904;SDS011;5505;51.450;9.254;2023-02-14T02:43:08;11.67;;;8.97;;
10904;SDS011;5505;51.450;9.254;2023-02-14T02:46:02;20.07;;;9.10;;
10904;SDS011;5505;51.450;9.254;2023-02-14T02:49:28;12.43;;;9.60;;
10904;SDS011;5505;51.450;9.254;2023-02-14T02:52:41;11.90;;;8.77;;
10904;SDS011;5505;51.450;9.254;2023-02-14T02:55:51;12.97;;;9.67;;
10904;SDS011;5505;51.450;9.254;2023-02-14T02:59:01;14.07;;;10.07;;
10904;SDS011;5505;51.450;9.254;2023-02-14T03:01:51;14.53;;;10.10;;
10904;SDS011;5505;51.450;9.254;2023-02-14T03:04:43;11.90;;;9.47;;
10904;SDS011;5505;51.450;9.254;2023-02-14T03:07:40;12.37;;;9.80;;
10904;SDS011;5505;51.450;9.254;2023-02-14T03:10:28;11.93;;;9.63;;
10904;SDS011;5505;51.450;9.254;2023-02-14T03:13:26;11.43;;;9.00;;
10904;SDS011;5505;51.450;9.254;2023-02-14T03:16:26;11.90;;;9.40;;
10904;SDS011;5505;51.450;9.254;2023-02-14T03:19:25;11.47;;;9.20;;
10904;SDS011;5505;51.450;9.254;2023-02-14T03:22:24;11.47;;;9.23;;
10904;SDS011;5505;51.450;9.254;2023-02-14T03:25:30;12.40;;;9.23;;
10904;SDS011;5505;51.450;9.254;2023-02-14T03:28:25;11.40;;;9.37;;
10904;SDS011;5505;51.450;9.254;2023-02-14T03:31:19;10.17;;;8.73;;
10904;SDS011;5505;51.450;9.254;2023-02-14T03:34:12;10.43;;;8.50;;
10904;SDS011;5505;51.450;9.254;2023-02-14T03:37:05;10.20;;;8.20;;
10904;SDS011;5505;51.450;9.254;2023-02-14T03:39:58;11.13;;;8.77;;
10904;SDS011;5505;51.450;9.254;2023-02-14T03:42:53;11.47;;;8.73;;
10904;SDS011;5505;51.450;9.254;2023-02-14T03:45:44;10.77;;;8.53;;
10904;SDS011;5505;51.450;9.254;2023-02-14T03:48:35;12.37;;;8.63;;
10904;SDS011;5505;51.450;9.254;2023-02-14T03:51:24;9.50;;;8.27;;
10904;SDS011;5505;51.450;9.254;2023-02-14T03:54:18;9.07;;;8.07;;
10904;SDS011;5505;51.450;9.254;2023-02-14T03:57:10;12.70;;;9.67;;
10904;SDS011;5505;51.450;9.254;2023-02-14T04:00:01;17.00;;;10.47;;
10904;SDS011;5505;51.450;9.254;2023-02-14T04:02:50;12.90;;;9.50;;
10904;SDS011;5505;51.450;9.254;2023-02-14T04:05:40;17.03;;;10.83;;
10904;SDS011;5505;51.450;9.254;2023-02-14T04:08:30;13.43;;;9.33;;
10904;SDS011;5505;51.450;9.254;2023-02-14T04:11:17;12.80;;;9.63;;
10904;SDS011;5505;51.450;9.254;2023-02-14T04:14:04;14.60;;;10.40;;
10904;SDS011;5505;51.450;9.254;2023-02-14T04:16:53;12.60;;;9.70;;
10904;SDS011;5505;51.450;9.254;2023-02-14T04:19:57;14.00;;;10.30;;
10904;SDS011;5505;51.450;9.254;2023-02-14T04:22:44;13.00;;;9.00;;
10904;SDS011;5505;51.450;9.254;2023-02-14T04:25:31;13.53;;;10.80;;
10904;SDS011;5505;51.450;9.254;2023-02-14T04:28:18;11.23;;;9.47;;
10904;SDS011;5505;51.450;9.254;2023-02-14T04:31:05;14.77;;;10.27;;
10904;SDS011;5505;51.450;9.254;2023-02-14T04:33:53;14.00;;;10.27;;
10904;SDS011;5505;51.450;9.254;2023-02-14T04:36:40;14.17;;;10.07;;
10904;SDS011;5505;51.450;9.254;2023-02-14T04:39:27;12.70;;;9.33;;
10904;SDS011;5505;51.450;9.254;2023-02-14T04:42:13;14.50;;;9.33;;
10904;SDS011;5505;51.450;9.254;2023-02-14T04:45:00;13.10;;;10.27;;
10904;SDS011;5505;51.450;9.254;2023-02-14T04:47:47;11.90;;;9.10;;
10904;SDS011;5505;51.450;9.254;2023-02-14T04:50:36;10.93;;;8.70;;
10904;SDS011;5505;51.450;9.254;2023-02-14T04:53:22;9.60;;;8.60;;
10904;SDS011;5505;51.450;9.254;2023-02-14T04:56:09;12.67;;;9.30;;
10904;SDS011;5505;51.450;9.254;2023-02-14T04:58:56;12.93;;;9.27;;
10904;SDS011;5505;51.450;9.254;2023-02-14T05:01:43;14.10;;;10.30;;
10904;SDS011;5505;51.450;9.254;2023-02-14T05:04:29;13.53;;;9.83;;
10904;SDS011;5505;51.450;9.254;2023-02-14T05:07:18;14.03;;;9.47;;
10904;SDS011;5505;51.450;9.254;2023-02-14T05:10:05;11.40;;;8.60;;
10904;SDS011;5505;51.450;9.254;2023-02-14T05:12:52;9.57;;;8.33;;
10904;SDS011;5505;51.450;9.254;2023-02-14T05:15:39;11.33;;;8.00;;
10904;SDS011;5505;51.450;9.254;2023-02-14T05:18:26;15.23;;;8.10;;
10904;SDS011;5505;51.450;9.254;2023-02-14T05:21:12;44.20;;;9.07;;
10904;SDS011;5505;51.450;9.254;2023-02-14T05:24:00;38.30;;;10.10;;
10904;SDS011;5505;51.450;9.254;2023-02-14T05:26:47;40.90;;;11.77;;
10904;SDS011;5505;51.450;9.254;2023-02-14T05:29:34;12.20;;;10.13;;
10904;SDS011;5505;51.450;9.254;2023-02-14T05:32:21;14.73;;;10.57;;
10904;SDS011;5505;51.450;9.254;2023-02-14T05:35:08;13.27;;;10.27;;
10904;SDS011;5505;51.450;9.254;2023-02-14T05:37:54;13.17;;;9.30;;
10904;SDS011;5505;51.450;9.254;2023-02-14T05:40:43;15.00;;;10.23;;
10904;SDS011;5505;51.450;9.254;2023-02-14T05:43:30;15.90;;;10.67;;
10904;SDS011;5505;51.450;9.254;2023-02-14T05:46:17;13.93;;;9.80;;
10904;SDS011;5505;51.450;9.254;2023-02-14T05:49:03;14.47;;;11.00;;
10904;SDS011;5505;51.450;9.254;2023-02-14T05:51:50;15.80;;;11.00;;
10904;SDS011;5505;51.450;9.254;2023-02-14T05:54:37;13.17;;;10.20;;
10904;SDS011;5505;51.450;9.254;2023-02-14T05:57:25;13.70;;;10.10;;
10904;SDS011;5505;51.450;9.254;2023-02-14T06:00:12;12.53;;;9.33;;
10904;SDS011;5505;51.450;9.254;2023-02-14T06:03:00;14.47;;;10.53;;
10904;SDS011;5505;51.450;9.254;2023-02-14T06:05:47;15.30;;;10.20;;
10904;SDS011;5505;51.450;9.254;2023-02-14T06:08:34;14.30;;;10.43;;
10904;SDS011;5505;51.450;9.254;2023-02-14T06:11:20;14.37;;;10.33;;
10904;SDS011;5505;51.450;9.254;2023-02-14T06:14:09;15.93;;;11.93;;
10904;SDS011;5505;51.450;9.254;2023-02-14T06:16:55;15.13;;;10.83;;
10904;SDS011;5505;51.450;9.254;2023-02-14T06:19:42;12.53;;;10.07;;
10904;SDS011;5505;51.450;9.254;2023-02-14T06:22:29;14.53;;;10.07;;
10904;SDS011;5505;51.450;9.254;2023-02-14T06:25:16;12.83;;;8.90;;
10904;SDS011;5505;51.450;9.254;2023-02-14T06:28:03;13.17;;;8.83;;
10904;SDS011;5505;51.450;9.254;2023-02-14T06:30:52;15.43;;;10.13;;
10904;SDS011;5505;51.450;9.254;2023-02-14T06:33:38;15.07;;;10.17;;
10904;SDS011;5505;51.450;9.254;2023-02-14T06:36:25;14.23;;;10.63;;
10904;SDS011;5505;51.450;9.254;2023-02-14T06:39:12;14.10;;;9.93;;
10904;SDS011;5505;51.450;9.254;2023-02-14T06:41:59;12.57;;;9.63;;
10904;SDS011;5505;51.450;9.254;2023-02-14T06:44:45;15.93;;;10.37;;
10904;SDS011;5505;51.450;9.254;2023-02-14T06:47:33;13.53;;;9.37;;
10904;SDS011;5505;51.450;9.254;2023-02-14T06:50:20;13.17;;;9.50;;
10904;SDS011;5505;51.450;9.254;2023-02-14T06:53:07;13.67;;;10.13;;
10904;SDS011;5505;51.450;9.254;2023-02-14T06:55:55;13.70;;;9.63;;
10904;SDS011;5505;51.450;9.254;2023-02-14T06:58:42;11.17;;;9.13;;
10904;SDS011;5505;51.450;9.254;2023-02-14T07:01:29;14.37;;;10.23;;
10904;SDS011;5505;51.450;9.254;2023-02-14T07:04:17;12.17;;;9.33;;
10904;SDS011;5505;51.450;9.254;2023-02-14T07:07:04;12.77;;;9.87;;
10904;SDS011;5505;51.450;9.254;2023-02-14T07:09:50;19.93;;;13.23;;
10904;SDS011;5505;51.450;9.254;2023-02-14T07:12:37;12.03;;;9.53;;
10904;SDS011;5505;51.450;9.254;2023-02-14T07:15:24;13.40;;;9.60;;
10904;SDS011;5505;51.450;9.254;2023-02-14T07:18:11;15.63;;;10.80;;
10904;SDS011;5505;51.450;9.254;2023-02-14T07:20:59;15.70;;;10.93;;
10904;SDS011;5505;51.450;9.254;2023-02-14T07:23:46;14.47;;;10.10;;
10904;SDS011;5505;51.450;9.254;2023-02-14T07:26:34;12.80;;;10.23;;
10904;SDS011;5505;51.450;9.254;2023-02-14T07:29:20;13.07;;;10.70;;
10904;SDS011;5505;51.450;9.254;2023-02-14T07:32:07;13.93;;;10.53;;
10904;SDS011;5505;51.450;9.254;2023-02-14T07:34:54;14.80;;;10.63;;
10904;SDS011;5505;51.450;9.254;2023-02-14T07:37:42;15.57;;;11.10;;
10904;SDS011;5505;51.450;9.254;2023-02-14T07:40:29;16.50;;;11.10;;
10904;SDS011;5505;51.450;9.254;2023-02-14T07:43:15;15.27;;;10.80;;
10904;SDS011;5505;51.450;9.254;2023-02-14T07:46:02;12.13;;;10.50;;
10904;SDS011;5505;51.450;9.254;2023-02-14T07:48:49;13.03;;;10.47;;
10904;SDS011;5505;51.450;9.254;2023-02-14T07:51:36;15.80;;;11.10;;
10904;SDS011;5505;51.450;9.254;2023-02-14T07:54:25;12.77;;;10.00;;
10904;SDS011;5505;51.450;9.254;2023-02-14T07:57:11;12.30;;;9.70;;
10904;SDS011;5505;51.450;9.254;2023-02-14T07:59:58;10.83;;;8.53;;
10904;SDS011;5505;51.450;9.254;2023-02-14T08:02:45;9.60;;;8.60;;
10904;SDS011;5505;51.450;9.254;2023-02-14T08:05:34;10.70;;;8.70;;
10904;SDS011;5505;51.450;9.254;2023-02-14T08:08:22;9.60;;;8.20;;
10904;SDS011;5505;51.450;9.254;2023-02-14T08:11:11;10.93;;;8.63;;
10904;SDS011;5505;51.450;9.254;2023-02-14T08:14:18;10.77;;;8.60;;
10904;SDS011;5505;51.450;9.254;2023-02-14T08:17:05;11.03;;;9.20;;
10904;SDS011;5505;51.450;9.254;2023-02-14T08:19:54;12.40;;;8.80;;
10904;SDS011;5505;51.450;9.254;2023-02-14T08:22:40;11.00;;;9.40;;
10904;SDS011;5505;51.450;9.254;2023-02-14T08:25:27;10.80;;;9.13;;
10904;SDS011;5505;51.450;9.254;2023-02-14T08:28:15;9.83;;;8.83;;
10904;SDS011;5505;51.450;9.254;2023-02-14T08:31:02;9.90;;;8.90;;
10904;SDS011;5505;51.450;9.254;2023-02-14T08:33:50;11.53;;;8.60;;
10904;SDS011;5505;51.450;9.254;2023-02-14T08:36:36;9.97;;;8.60;;
10904;SDS011;5505;51.450;9.254;2023-02-14T08:39:23;10.40;;;8.77;;
10904;SDS011;5505;51.450;9.254;2023-02-14T08:42:10;10.17;;;8.40;;
10904;SDS011;5505;51.450;9.254;2023-02-14T08:44:58;9.13;;;8.13;;
10904;SDS011;5505;51.450;9.254;2023-02-14T08:47:45;9.33;;;7.97;;
10904;SDS011;5505;51.450;9.254;2023-02-14T08:50:31;10.17;;;8.57;;
10904;SDS011;5505;51.450;9.254;2023-02-14T08:53:19;9.93;;;8.53;;
10904;SDS011;5505;51.450;9.254;2023-02-14T08:56:07;11.23;;;8.27;;
10904;SDS011;5505;51.450;9.254;2023-02-14T08:58:55;8.93;;;7.87;;
10904;SDS011;5505;51.450;9.254;2023-02-14T09:01:43;9.27;;;8.27;;
10904;SDS011;5505;51.450;9.254;2023-02-14T09:04:29;9.03;;;8.00;;
10904;SDS011;5505;51.450;9.254;2023-02-14T09:07:19;8.93;;;7.40;;
10904;SDS011;5505;51.450;9.254;2023-02-14T09:10:06;10.07;;;7.63;;
10904;SDS011;5505;51.450;9.254;2023-02-14T09:12:53;9.37;;;8.37;;
10904;SDS011;5505;51.450;9.254;2023-02-14T09:15:40;10.03;;;8.33;;
10904;SDS011;5505;51.450;9.254;2023-02-14T09:18:28;10.03;;;8.57;;
10904;SDS011;5505;51.450;9.254;2023-02-14T09:21:15;9.27;;;8.17;;
10904;SDS011;5505;51.450;9.254;2023-02-14T09:24:03;9.73;;;8.37;;
10904;SDS011;5505;51.450;9.254;2023-02-14T09:26:51;11.53;;;8.83;;
10904;SDS011;5505;51.450;9.254;2023-02-14T09:29:38;10.03;;;8.13;;
10904;SDS011;5505;51.450;9.254;2023-02-14T09:32:24;9.60;;;8.53;;
10904;SDS011;5505;51.450;9.254;2023-02-14T09:35:14;11.70;;;9.13;;
10904;SDS011;5505;51.450;9.254;2023-02-14T09:38:01;10.00;;;8.70;;
10904;SDS011;5505;51.450;9.254;2023-02-14T09:40:48;13.13;;;9.67;;
10904;SDS011;5505;51.450;9.254;2023-02-14T09:43:35;11.50;;;10.23;;
10904;SDS011;5505;51.450;9.254;2023-02-14T09:46:27;11.90;;;9.87;;
10904;SDS011;5505;51.450;9.254;2023-02-14T09:49:16;12.20;;;10.47;;
10904;SDS011;5505;51.450;9.254;2023-02-14T09:52:11;11.73;;;10.20;;
10904;SDS011;5505;51.450;9.254;2023-02-14T09:55:01;12.83;;;9.90;;
10904;SDS011;5505;51.450;9.254;2023-02-14T09:57:56;12.63;;;10.37;;
10904;SDS011;5505;51.450;9.254;2023-02-14T10:00:51;11.47;;;9.47;;
10904;SDS011;5505;51.450;9.254;2023-02-14T10:03:49;11.23;;;9.90;;
10904;SDS011;5505;51.450;9.254;2023-02-14T10:06:45;11.97;;;8.93;;
10904;SDS011;5505;51.450;9.254;2023-02-14T10:09:39;12.43;;;9.77;;
10904;SDS011;5505;51.450;9.254;2023-02-14T10:12:36;12.90;;;10.03;;
10904;SDS011;5505;51.450;9.254;2023-02-14T10:15:29;13.50;;;10.20;;
10904;SDS011;5505;51.450;9.254;2023-02-14T10:18:19;13.87;;;10.23;;
10904;SDS011;5505;51.450;9.254;2023-02-14T10:21:10;13.17;;;9.80;;
10904;SDS011;5505;51.450;9.254;2023-02-14T10:24:03;11.53;;;9.97;;
10904;SDS011;5505;51.450;9.254;2023-02-14T10:27:00;12.33;;;10.23;;
10904;SDS011;5505;51.450;9.254;2023-02-14T10:29:51;13.63;;;10.50;;
10904;SDS011;5505;51.450;9.254;2023-02-14T10:32:39;14.10;;;10.57;;
10904;SDS011;5505;51.450;9.254;2023-02-14T10:35:33;11.63;;;9.60;;
10904;SDS011;5505;51.450;9.254;2023-02-14T10:38:32;12.33;;;10.13;;
10904;SDS011;5505;51.450;9.254;2023-02-14T10:41:30;13.00;;;9.97;;
10904;SDS011;5505;51.450;9.254;2023-02-14T10:44:29;14.10;;;10.53;;
10904;SDS011;5505;51.450;9.254;2023-02-14T10:47:27;11.67;;;9.83;;
10904;SDS011;5505;51.450;9.254;2023-02-14T10:50:20;12.27;;;10.40;;
10904;SDS011;5505;51.450;9.254;2023-02-14T10:53:14;11.70;;;10.10;;
10904;SDS011;5505;51.450;9.254;2023-02-14T10:56:07;11.87;;;10.20;;
10904;SDS011;5505;51.450;9.254;2023-02-14T10:59:07;11.77;;;10.00;;
10904;SDS011;5505;51.450;9.254;2023-02-14T11:02:02;13.33;;;10.60;;
10904;SDS011;5505;51.450;9.254;2023-02-14T11:04:50;11.40;;;10.17;;
10904;SDS011;5505;51.450;9.254;2023-02-14T11:07:37;12.53;;;10.23;;
10904;SDS011;5505;51.450;9.254;2023-02-14T11:10:25;13.23;;;9.73;;
10904;SDS011;5505;51.450;9.254;2023-02-14T11:13:28;11.33;;;9.87;;
10904;SDS011;5505;51.450;9.254;2023-02-14T11:16:22;12.37;;;10.00;;
10904;SDS011;5505;51.450;9.254;2023-02-14T11:19:19;11.43;;;9.97;;
10904;SDS011;5505;51.450;9.254;2023-02-14T11:22:08;11.13;;;9.93;;
10904;SDS011;5505;51.450;9.254;2023-02-14T11:25:18;13.93;;;10.70;;
10904;SDS011;5505;51.450;9.254;2023-02-14T11:28:09;13.63;;;10.40;;
10904;SDS011;5505;51.450;9.254;2023-02-14T11:31:01;14.97;;;10.63;;
10904;SDS011;5505;51.450;9.254;2023-02-14T11:33:48;11.43;;;9.97;;
10904;SDS011;5505;51.450;9.254;2023-02-14T11:36:39;14.97;;;10.83;;
10904;SDS011;5505;51.450;9.254;2023-02-14T11:39:28;13.37;;;10.43;;
10904;SDS011;5505;51.450;9.254;2023-02-14T11:42:30;12.23;;;10.63;;
10904;SDS011;5505;51.450;9.254;2023-02-14T11:45:27;12.63;;;10.80;;
10904;SDS011;5505;51.450;9.254;2023-02-14T11:48:16;11.60;;;9.90;;
10904;SDS011;5505;51.450;9.254;2023-02-14T11:51:05;13.27;;;11.00;;
10904;SDS011;5505;51.450;9.254;2023-02-14T11:53:56;13.57;;;10.80;;
10904;SDS011;5505;51.450;9.254;2023-02-14T11:56:49;12.03;;;10.73;;
10904;SDS011;5505;51.450;9.254;2023-02-14T11:59:40;12.67;;;10.87;;
10904;SDS011;5505;51.450;9.254;2023-02-14T12:02:30;12.87;;;10.50;;
10904;SDS011;5505;51.450;9.254;2023-02-14T12:05:22;11.93;;;10.67;;
10904;SDS011;5505;51.450;9.254;2023-02-14T12:08:12;11.60;;;10.40;;
10904;SDS011;5505;51.450;9.254;2023-02-14T12:11:02;11.83;;;10.27;;
10904;SDS011;5505;51.450;9.254;2023-02-14T12:13:51;12.93;;;10.57;;
10904;SDS011;5505;51.450;9.254;2023-02-14T12:16:41;13.13;;;9.90;;
10904;SDS011;5505;51.450;9.254;2023-02-14T12:19:34;12.30;;;10.20;;
10904;SDS011;5505;51.450;9.254;2023-02-14T12:22:28;12.80;;;10.43;;
10904;SDS011;5505;51.450;9.254;2023-02-14T12:25:19;11.70;;;10.20;;
10904;SDS011;5505;51.450;9.254;2023-02-14T12:28:12;11.73;;;10.53;;
10904;SDS011;5505;51.450;9.254;2023-02-14T12:31:07;12.93;;;10.67;;
10904;SDS011;5505;51.450;9.254;2023-02-14T12:33:56;10.90;;;9.17;;
10904;SDS011;5505;51.450;9.254;2023-02-14T12:40:02;10.23;;;9.13;;
10904;SDS011;5505;51.450;9.254;2023-02-14T12:42:59;10.97;;;9.77;;
10904;SDS011;5505;51.450;9.254;2023-02-14T12:46:02;11.63;;;8.93;;
10904;SDS011;5505;51.450;9.254;2023-02-14T12:49:03;11.37;;;9.50;;
10904;SDS011;5505;51.450;9.254;2023-02-14T12:52:07;9.60;;;8.60;;
10904;SDS011;5505;51.450;9.254;2023-02-14T12:55:22;10.20;;;9.20;;
10904;SDS011;5505;51.450;9.254;2023-02-14T12:58:22;10.50;;;9.40;;
10904;SDS011;5505;51.450;9.254;2023-02-14T13:01:30;11.00;;;9.90;;
10904;SDS011;5505;51.450;9.254;2023-02-14T13:04:43;12.40;;;9.60;;
10904;SDS011;5505;51.450;9.254;2023-02-14T13:07:43;10.13;;;9.10;;
10904;SDS011;5505;51.450;9.254;2023-02-14T13:10:44;9.90;;;8.83;;
10904;SDS011;5505;51.450;9.254;2023-02-14T13:13:42;10.10;;;9.07;;
10904;SDS011;5505;51.450;9.254;2023-02-14T13:16:38;10.33;;;8.87;;
10904;SDS011;5505;51.450;9.254;2023-02-14T13:19:34;10.70;;;9.17;;
10904;SDS011;5505;51.450;9.254;2023-02-14T13:22:28;8.97;;;7.90;;
10904;SDS011;5505;51.450;9.254;2023-02-14T13:25:20;8.90;;;8.00;;
10904;SDS011;5505;51.450;9.254;2023-02-14T13:28:15;9.03;;;7.70;;
10904;SDS011;5505;51.450;9.254;2023-02-14T13:31:03;8.07;;;7.27;;
10904;SDS011;5505;51.450;9.254;2023-02-14T13:33:53;10.43;;;9.07;;
10904;SDS011;5505;51.450;9.254;2023-02-14T13:36:43;11.70;;;9.03;;
10904;SDS011;5505;51.450;9.254;2023-02-14T13:39:31;10.77;;;9.27;;
10904;SDS011;5505;51.450;9.254;2023-02-14T13:49:00;8.63;;;7.73;;
10904;SDS011;5505;51.450;9.254;2023-02-14T13:51:50;9.03;;;7.90;;
10904;SDS011;5505;51.450;9.254;2023-02-14T13:54:41;10.27;;;8.53;;
10904;SDS011;5505;51.450;9.254;2023-02-14T13:57:31;10.10;;;9.10;;
10904;SDS011;5505;51.450;9.254;2023-02-14T14:10:02;7.33;;;5.50;;
10904;SDS011;5505;51.450;9.254;2023-02-14T14:12:50;7.40;;;6.70;;
10904;SDS011;5505;51.450;9.254;2023-02-14T14:15:37;5.97;;;4.60;;
10904;SDS011;5505;51.450;9.254;2023-02-14T14:19:08;5.03;;;4.20;;
10904;SDS011;5505;51.450;9.254;2023-02-14T14:22:22;5.10;;;4.47;;
10904;SDS011;5505;51.450;9.254;2023-02-14T14:25:10;5.03;;;4.50;;
10904;SDS011;5505;51.450;9.254;2023-02-14T14:27:57;4.83;;;4.33;;
10904;SDS011;5505;51.450;9.254;2023-02-14T14:30:44;5.97;;;4.63;;
10904;SDS011;5505;51.450;9.254;2023-02-14T14:33:32;4.90;;;4.40;;
10904;SDS011;5505;51.450;9.254;2023-02-14T14:36:23;4.97;;;4.20;;
10904;SDS011;5505;51.450;9.254;2023-02-14T14:39:10;4.67;;;4.20;;
10904;SDS011;5505;51.450;9.254;2023-02-14T14:42:03;5.00;;;4.50;;
10904;SDS011;5505;51.450;9.254;2023-02-14T14:44:53;5.40;;;4.53;;
10904;SDS011;5505;51.450;9.254;2023-02-14T14:47:42;5.27;;;4.40;;
10904;SDS011;5505;51.450;9.254;2023-02-14T14:50:32;5.43;;;4.90;;
10904;SDS011;5505;51.450;9.254;2023-02-14T14:53:23;6.47;;;5.33;;
10904;SDS011;5505;51.450;9.254;2023-02-14T14:56:12;6.10;;;5.50;;
10904;SDS011;5505;51.450;9.254;2023-02-14T14:59:17;6.10;;;5.50;;
10904;SDS011;5505;51.450;9.254;2023-02-14T15:02:19;5.90;;;5.27;;
10904;SDS011;5505;51.450;9.254;2023-02-14T15:05:12;7.23;;;5.33;;
10904;SDS011;5505;51.450;9.254;2023-02-14T15:08:15;7.93;;;5.80;;
10904;SDS011;5505;51.450;9.254;2023-02-14T15:11:08;7.53;;;6.37;;
10904;SDS011;5505;51.450;9.254;2023-02-14T15:13:59;9.40;;;6.47;;
10904;SDS011;5505;51.450;9.254;2023-02-14T15:16:47;5.37;;;4.87;;
10904;SDS011;5505;51.450;9.254;2023-02-14T15:19:36;6.87;;;6.13;;
10904;SDS011;5505;51.450;9.254;2023-02-14T15:22:28;7.60;;;5.53;;
10904;SDS011;5505;51.450;9.254;2023-02-14T15:25:19;6.07;;;5.47;;
10904;SDS011;5505;51.450;9.254;2023-02-14T15:28:11;6.33;;;5.73;;
10904;SDS011;5505;51.450;9.254;2023-02-14T15:31:02;7.43;;;5.83;;
10904;SDS011;5505;51.450;9.254;2023-02-14T15:33:50;6.63;;;6.03;;
10904;SDS011;5505;51.450;9.254;2023-02-14T15:36:37;6.77;;;5.77;;
10904;SDS011;5505;51.450;9.254;2023-02-14T15:39:34;6.33;;;5.73;;
10904;SDS011;5505;51.450;9.254;2023-02-14T15:42:23;6.97;;;5.97;;
10904;SDS011;5505;51.450;9.254;2023-02-14T15:45:16;5.80;;;5.03;;
10904;SDS011;5505;51.450;9.254;2023-02-14T15:48:10;5.90;;;5.07;;
10904;SDS011;5505;51.450;9.254;2023-02-14T15:51:00;7.50;;;4.93;;
10904;SDS011;5505;51.450;9.254;2023-02-14T15:53:51;5.70;;;5.10;;
10904;SDS011;5505;51.450;9.254;2023-02-14T15:56:40;7.17;;;5.20;;
10904;SDS011;5505;51.450;9.254;2023-02-14T15:59:31;7.50;;;5.30;;
10904;SDS011;5505;51.450;9.254;2023-02-14T16:02:26;7.33;;;5.10;;
10904;SDS011;5505;51.450;9.254;2023-02-14T16:05:15;7.10;;;5.40;;
10904;SDS011;5505;51.450;9.254;2023-02-14T16:08:06;8.33;;;6.00;;
10904;SDS011;5505;51.450;9.254;2023-02-14T16:11:11;5.90;;;5.27;;
10904;SDS011;5505;51.450;9.254;2023-02-14T16:17:05;6.90;;;5.67;;
10904;SDS011;5505;51.450;9.254;2023-02-14T16:19:57;7.53;;;6.73;;
10904;SDS011;5505;51.450;9.254;2023-02-14T16:22:44;8.53;;;6.77;;
10904;SDS011;5505;51.450;9.254;2023-02-14T16:25:31;8.23;;;7.07;;
10904;SDS011;5505;51.450;9.254;2023-02-14T16:28:18;6.63;;;5.57;;
10904;SDS011;5505;51.450;9.254;2023-02-14T16:31:06;8.03;;;6.40;;
10904;SDS011;5505;51.450;9.254;2023-02-14T16:33:57;10.17;;;9.00;;
10904;SDS011;5505;51.450;9.254;2023-02-14T16:36:46;19.13;;;15.27;;
10904;SDS011;5505;51.450;9.254;2023-02-14T16:39:33;15.47;;;10.40;;
10904;SDS011;5505;51.450;9.254;2023-02-14T16:42:20;10.37;;;8.53;;
10904;SDS011;5505;51.450;9.254;2023-02-14T16:45:09;7.73;;;6.87;;
10904;SDS011;5505;51.450;9.254;2023-02-14T16:48:00;6.67;;;6.00;;
10904;SDS011;5505;51.450;9.254;2023-02-14T16:50:47;8.33;;;6.43;;
10904;SDS011;5505;51.450;9.254;2023-02-14T16:53:35;8.87;;;7.40;;
10904;SDS011;5505;51.450;9.254;2023-02-14T16:56:23;8.40;;;6.77;;
10904;SDS011;5505;51.450;9.254;2023-02-14T16:59:12;10.63;;;8.57;;
10904;SDS011;5505;51.450;9.254;2023-02-14T17:01:59;9.70;;;7.17;;
10904;SDS011;5505;51.450;9.254;2023-02-14T17:04:46;7.57;;;6.77;;
10904;SDS011;5505;51.450;9.254;2023-02-14T17:07:33;10.30;;;8.00;;
10904;SDS011;5505;51.450;9.254;2023-02-14T17:10:22;8.87;;;7.13;;
10904;SDS011;5505;51.450;9.254;2023-02-14T17:13:11;9.77;;;7.63;;
10904;SDS011;5505;51.450;9.254;2023-02-14T17:15:58;9.10;;;7.53;;
10904;SDS011;5505;51.450;9.254;2023-02-14T17:18:46;9.53;;;7.60;;
10904;SDS011;5505;51.450;9.254;2023-02-14T17:21:35;9.13;;;7.70;;
10904;SDS011;5505;51.450;9.254;2023-02-14T17:24:22;10.53;;;8.30;;
10904;SDS011;5505;51.450;9.254;2023-02-14T17:27:10;8.67;;;7.50;;
10904;SDS011;5505;51.450;9.254;2023-02-14T17:29:57;9.50;;;7.60;;
10904;SDS011;5505;51.450;9.254;2023-02-14T17:32:44;10.60;;;9.50;;
10904;SDS011;5505;51.450;9.254;2023-02-14T17:35:32;8.23;;;7.30;;